Pagrindinis puslapis
METAR-TAF:

METAR-TAF

Oro uostai :

Ubonratčathanis, Tailandas

platuma: 15-15N, ilguma: 104-52E, Aukštis: 123 m

Dabartinis oras

Ataskaita buvo paskelbta 57 minutes, ne 00:00 UTC
Vėjas 11 kt iš Šiaurės
Temperatūra 22°C
Drėgmė 78%
Slėgis 1015 hPa
Matomumas 10 km arba daugiau
nėra debesų žemiau 1500 m ir nėra kamuolinių lietaus debesų

METAR: VTUU 290000Z 01011KT CAVOK 22/18 Q1015 NOSIG

Laikas: 07:57 (00:57 UTC)

Prognozė

Ataskaita buvo paskelbta 1 valandą ir 57 minutes, ne 23:00 UTC
Prognozė galioja nuo 29 metu 00 UTC su 29 metu 24 UTC
Vėjas 11 kt iš Šiaurės/Šiaurės Rytų
Matomumas 10 km arba daugiau
Mažai debesys ne aukštis 4000 ft

TAF: VTUU 282300Z 2900/2924 03011KT 9999 FEW040

Orai ataskaitas ir orų prognozės (METAR, TAF).

turimą stotys yra geltonos ir raudonos taškus žemėlapyje.

Perkelti pele per norėdami pamatyti stoties vardą.

Tada spustelėkite, norėdami matyti oro stebėjimo ir prognozės.

Norėdami pakeisti žemėlapį: spustelėkite ant žalios mygtukų su juodo kryžiaus žemyn,; žalią mygtuką su brūkšneliu, jei norite nutolinti; arba žalių rodyklių gretimoms žemėlapius.


METAR-TAF: